Time;durP1;ratioP1;P1;durP2;ratioP2;P2;SDS_P1;SDS_P2;PMS_P1;PMS_P2;Temp;Humidity;BMP_temperature;BMP_pressure;BME280_temperature;BME280_humidity;BME280_pressure;Samples;Min_cycle;Max_cycle;Signal;HPM_P1;HPM_P2
2021/09/11 00:02:18;;;;;;;45.40;37.50;;;;;;;16.86;100.00;100641.94;5004819;28;20051;-69
2021/09/11 00:04:47;;;;;;;54.00;40.88;;;;;;;16.83;100.00;100647.50;5005916;28;20499;-69
2021/09/11 00:07:15;;;;;;;50.22;41.92;;;;;;;16.91;100.00;100653.00;4996450;28;20057;-69
2021/09/11 00:09:42;;;;;;;46.25;39.55;;;;;;;16.89;100.00;100660.28;4988259;28;20152;-68
2021/09/11 00:12:10;;;;;;;46.25;37.67;;;;;;;16.89;100.00;100649.66;5007293;28;20473;-70
2021/09/11 00:14:37;;;;;;;43.33;36.65;;;;;;;16.91;100.00;100655.66;5006117;28;20414;-69
2021/09/11 00:17:05;;;;;;;39.10;33.83;;;;;;;16.95;100.00;100649.13;5014003;28;20084;-70
2021/09/11 00:19:33;;;;;;;42.15;36.33;;;;;;;16.93;100.00;100659.03;5004912;28;20064;-71
2021/09/11 00:22:00;;;;;;;45.10;37.63;;;;;;;16.82;100.00;100657.28;4992157;28;20140;-69
2021/09/11 00:24:27;;;;;;;55.33;38.40;;;;;;;16.75;100.00;100657.94;4980024;28;20380;-69
2021/09/11 00:26:55;;;;;;;42.15;37.00;;;;;;;16.78;100.00;100663.00;5008753;28;20113;-67
2021/09/11 00:29:23;;;;;;;45.95;38.78;;;;;;;16.82;100.00;100662.63;5004681;28;20308;-69
2021/09/11 00:31:50;;;;;;;49.60;39.45;;;;;;;16.78;100.00;100657.69;4991385;28;20136;-68
2021/09/11 00:34:18;;;;;;;44.75;37.35;;;;;;;16.76;100.00;100657.81;5005662;28;20070;-68
2021/09/11 00:36:45;;;;;;;41.35;36.40;;;;;;;16.82;100.00;100653.78;5005010;28;20145;-68
2021/09/11 00:39:12;;;;;;;45.40;36.90;;;;;;;16.85;100.00;100648.22;5001376;28;20095;-68
2021/09/11 00:41:39;;;;;;;41.95;36.55;;;;;;;16.83;100.00;100650.16;5008769;28;20132;-70
2021/09/11 00:44:07;;;;;;;47.03;39.72;;;;;;;16.76;100.00;100651.66;5002202;28;20049;-70
2021/09/11 00:46:34;;;;;;;49.10;41.10;;;;;;;16.73;100.00;100657.22;5007252;28;20076;-67
2021/09/11 00:49:01;;;;;;;40.38;36.05;;;;;;;16.70;100.00;100650.31;5003373;28;20208;-69
2021/09/11 00:51:28;;;;;;;42.50;37.03;;;;;;;16.75;100.00;100652.63;5002719;28;20141;-68
2021/09/11 00:53:55;;;;;;;56.25;44.25;;;;;;;16.70;100.00;100652.97;4999156;28;20138;-69
2021/09/11 00:56:23;;;;;;;51.00;41.05;;;;;;;16.62;100.00;100660.78;5004763;28;20081;-69
2021/09/11 00:58:50;;;;;;;42.72;37.25;;;;;;;16.58;100.00;100665.50;4989384;28;20080;-68
2021/09/11 01:01:17;;;;;;;43.80;36.92;;;;;;;16.64;100.00;100666.78;5007043;28;20492;-71
2021/09/11 01:03:45;;;;;;;46.75;39.65;;;;;;;16.61;100.00;100667.88;5005412;28;20152;-69
2021/09/11 01:06:12;;;;;;;43.72;38.17;;;;;;;16.65;100.00;100668.47;4980841;28;20132;-70
2021/09/11 01:08:40;;;;;;;45.30;37.38;;;;;;;16.60;100.00;100673.31;4999669;28;20098;-70
2021/09/11 01:11:08;;;;;;;43.75;36.28;;;;;;;16.62;100.00;100674.91;5006216;28;20054;-70
2021/09/11 01:13:36;;;;;;;44.33;39.50;;;;;;;16.60;100.00;100674.16;5006402;28;20084;-70
2021/09/11 01:16:04;;;;;;;43.90;38.85;;;;;;;16.53;100.00;100675.66;4987581;28;20375;-68
2021/09/11 01:18:32;;;;;;;46.20;40.72;;;;;;;16.48;100.00;100671.69;4988540;28;20045;-70
2021/09/11 01:25:51;;;;;;;52.38;41.03;;;;;;;16.42;100.00;100670.38;4992262;28;20049;-68
2021/09/11 01:28:19;;;;;;;46.55;41.40;;;;;;;16.47;100.00;100668.19;4982899;28;20053;-68
2021/09/11 01:30:46;;;;;;;45.45;40.05;;;;;;;16.48;100.00;100672.56;4977709;28;20063;-67
2021/09/11 01:33:13;;;;;;;47.70;41.00;;;;;;;16.42;100.00;100670.38;4986169;28;20056;-68
2021/09/11 01:35:41;;;;;;;46.17;37.78;;;;;;;16.53;100.00;100674.81;4997229;28;20104;-69
2021/09/11 01:38:08;;;;;;;44.40;38.65;;;;;;;16.63;100.00;100681.06;4975548;28;20490;-69
2021/09/11 01:40:35;;;;;;;46.20;38.38;;;;;;;16.58;100.00;100684.09;4994369;28;20092;-67
2021/09/11 01:43:03;;;;;;;43.85;39.00;;;;;;;16.55;100.00;100676.38;4989175;28;20046;-69
2021/09/11 01:45:30;;;;;;;45.75;38.47;;;;;;;16.54;100.00;100682.66;5001070;28;20067;-68
2021/09/11 01:47:57;;;;;;;49.00;38.42;;;;;;;16.44;100.00;100682.59;5006581;28;20160;-69
2021/09/11 01:50:24;;;;;;;45.78;37.22;;;;;;;16.38;100.00;100684.88;5003837;28;20100;-70
2021/09/11 01:52:51;;;;;;;43.63;36.65;;;;;;;16.38;100.00;100683.06;4990248;28;20140;-68
2021/09/11 01:55:21;;;;;;;45.33;36.72;;;;;;;16.49;100.00;100682.19;4983779;28;20138;-68
2021/09/11 01:57:48;;;;;;;41.72;37.30;;;;;;;16.44;100.00;100684.41;5006078;28;20065;-69
2021/09/11 02:00:18;;;;;;;44.35;36.28;;;;;;;16.42;100.00;100687.16;5003703;28;20405;-68
2021/09/11 02:02:46;;;;;;;44.97;38.20;;;;;;;16.41;100.00;100679.34;5026934;23;20052;-67
2021/09/11 02:05:15;;;;;;;40.83;36.38;;;;;;;16.34;100.00;100684.28;5062131;28;20052;-67
2021/09/11 02:07:42;;;;;;;40.40;36.05;;;;;;;16.36;100.00;100681.53;5065597;28;20135;-67
2021/09/11 02:10:11;;;;;;;41.05;36.65;;;;;;;16.33;100.00;100690.56;5026055;28;20101;-67
2021/09/11 02:12:38;;;;;;;43.42;38.42;;;;;;;16.29;100.00;100688.31;5062058;28;20136;-67
2021/09/11 02:15:06;;;;;;;41.08;35.80;;;;;;;16.19;100.00;100685.56;5019718;28;20104;-67
2021/09/11 02:17:33;;;;;;;42.38;36.85;;;;;;;16.14;100.00;100683.28;5009675;28;20388;-68
2021/09/11 02:20:01;;;;;;;44.60;37.63;;;;;;;16.16;100.00;100683.97;5022409;28;20080;-67
2021/09/11 02:22:28;;;;;;;43.17;35.63;;;;;;;16.28;100.00;100683.97;5042527;28;20073;-66
2021/09/11 02:24:55;;;;;;;45.47;36.70;;;;;;;16.39;100.00;100684.78;5026922;28;20490;-67
2021/09/11 02:27:22;;;;;;;40.58;35.65;;;;;;;16.42;100.00;100679.19;5045610;28;20606;-67
2021/09/11 02:29:49;;;;;;;40.80;36.10;;;;;;;16.48;100.00;100680.53;5058848;28;20139;-66
2021/09/11 02:32:16;;;;;;;40.15;35.22;;;;;;;16.45;100.00;100686.09;5039690;28;20148;-67
2021/09/11 02:34:43;;;;;;;41.80;36.67;;;;;;;16.52;100.00;100689.91;5053059;28;20051;-67
2021/09/11 02:37:11;;;;;;;38.97;34.25;;;;;;;16.67;100.00;100691.31;5027807;28;20051;-67
2021/09/11 02:39:39;;;;;;;40.50;33.63;;;;;;;16.50;100.00;100689.19;5039501;28;20135;-67
2021/09/11 02:42:06;;;;;;;39.25;35.00;;;;;;;16.44;100.00;100681.75;5044416;28;20478;-66
2021/09/11 02:44:33;;;;;;;39.53;33.42;;;;;;;16.64;100.00;100688.88;5043570;28;20403;-67
2021/09/11 02:47:00;;;;;;;47.03;35.28;;;;;;;16.56;100.00;100678.03;5052598;28;20056;-67
2021/09/11 02:49:27;;;;;;;42.38;34.25;;;;;;;16.66;100.00;100686.09;5045649;28;20251;-68
2021/09/11 02:51:55;;;;;;;38.28;34.00;;;;;;;16.54;100.00;100682.66;5028952;28;20055;-68
2021/09/11 02:54:22;;;;;;;39.67;35.58;;;;;;;16.40;100.00;100681.16;5042826;28;20458;-69
2021/09/11 02:56:49;;;;;;;44.10;35.58;;;;;;;16.29;100.00;100689.13;5050128;28;20063;-67
2021/09/11 02:59:16;;;;;;;44.08;38.38;;;;;;;16.18;100.00;100689.19;5046313;28;20053;-67
2021/09/11 03:01:43;;;;;;;40.17;35.83;;;;;;;16.18;100.00;100682.06;5039810;28;20073;-66
2021/09/11 03:04:11;;;;;;;45.70;39.83;;;;;;;16.10;100.00;100684.50;5035844;28;20053;-67
2021/09/11 03:06:38;;;;;;;46.67;39.92;;;;;;;16.10;100.00;100679.19;5029670;28;20140;-67
2021/09/11 03:09:05;;;;;;;54.40;41.15;;;;;;;16.16;100.00;100689.28;5041502;28;20107;-67
2021/09/11 03:11:33;;;;;;;45.08;38.33;;;;;;;16.10;100.00;100683.66;5029603;28;20051;-65
2021/09/11 03:14:00;;;;;;;44.30;38.03;;;;;;;16.23;100.00;100688.81;5011965;28;20045;-68
2021/09/11 03:16:27;;;;;;;52.13;41.83;;;;;;;16.16;100.00;100685.78;5008970;28;20148;-66
2021/09/11 03:18:54;;;;;;;42.22;37.60;;;;;;;16.28;100.00;100687.47;5029624;28;20065;-68
2021/09/11 03:21:21;;;;;;;46.25;38.53;;;;;;;16.24;100.00;100687.84;5054493;28;20124;-67
2021/09/11 03:23:48;;;;;;;45.92;38.17;;;;;;;16.18;100.00;100683.88;5041381;28;20563;-67
2021/09/11 03:26:16;;;;;;;46.10;41.10;;;;;;;16.13;100.00;100683.41;5015614;28;20137;-67
2021/09/11 03:28:43;;;;;;;43.97;39.22;;;;;;;16.14;100.00;100685.94;5038290;28;20132;-67
2021/09/11 03:31:10;;;;;;;47.42;39.35;;;;;;;16.19;100.00;100685.56;5044380;28;20132;-68
2021/09/11 03:33:37;;;;;;;42.08;36.30;;;;;;;16.22;100.00;100679.16;5031124;28;20042;-67
2021/09/11 03:36:04;;;;;;;46.75;38.65;;;;;;;16.18;100.00;100687.38;5045412;28;20052;-67
2021/09/11 03:38:31;;;;;;;46.10;40.00;;;;;;;16.13;100.00;100681.59;5032237;28;20044;-67
2021/09/11 03:40:59;;;;;;;55.65;40.25;;;;;;;16.08;100.00;100678.47;5034078;28;20055;-68
2021/09/11 03:43:26;;;;;;;43.85;39.13;;;;;;;16.11;100.00;100686.16;5022462;28;20140;-67
2021/09/11 03:45:53;;;;;;;43.33;38.65;;;;;;;16.27;100.00;100680.47;5026330;28;20052;-66
2021/09/11 03:48:20;;;;;;;47.47;38.03;;;;;;;16.38;100.00;100682.22;5025194;28;20144;-67
2021/09/11 03:50:47;;;;;;;48.00;38.42;;;;;;;16.36;100.00;100694.81;5048415;28;20092;-68
2021/09/11 03:53:14;;;;;;;45.22;38.65;;;;;;;16.23;100.00;100697.63;5049392;28;20048;-68
2021/09/11 03:55:42;;;;;;;41.33;34.90;;;;;;;16.31;100.00;100702.31;5019790;28;20515;-66
2021/09/11 03:58:09;;;;;;;43.20;37.72;;;;;;;16.21;100.00;100691.59;5047101;28;20069;-68
2021/09/11 04:00:36;;;;;;;51.08;37.78;;;;;;;16.24;100.00;100696.66;5042032;28;20045;-67
2021/09/11 04:03:03;;;;;;;48.50;38.65;;;;;;;16.13;100.00;100691.38;5051607;28;20066;-67
2021/09/11 04:05:31;;;;;;;46.75;41.33;;;;;;;16.05;100.00;100685.84;5043976;28;20124;-67
2021/09/11 04:07:58;;;;;;;41.92;34.88;;;;;;;16.14;100.00;100688.59;5052797;28;20608;-68
2021/09/11 04:10:25;;;;;;;49.78;38.75;;;;;;;16.14;100.00;100685.94;5038614;28;20084;-66
2021/09/11 04:12:53;;;;;;;43.10;37.53;;;;;;;16.16;100.00;100683.97;5045763;28;20118;-66
2021/09/11 04:15:20;;;;;;;44.75;35.17;;;;;;;16.23;100.00;100694.13;5039410;28;20144;-67
2021/09/11 04:17:47;;;;;;;45.88;39.13;;;;;;;16.29;100.00;100697.09;5049741;28;20041;-67
2021/09/11 04:20:14;;;;;;;48.03;39.65;;;;;;;16.42;100.00;100694.28;5045536;28;20041;-68
2021/09/11 04:22:41;;;;;;;45.05;38.50;;;;;;;16.36;100.00;100689.50;5039672;28;20055;-69
2021/09/11 04:25:08;;;;;;;46.30;36.65;;;;;;;16.37;100.00;100688.53;5022186;28;20044;-67
2021/09/11 04:27:36;;;;;;;42.22;36.67;;;;;;;16.44;100.00;100697.69;5041788;28;20053;-68
2021/09/11 04:30:04;;;;;;;40.65;36.50;;;;;;;16.45;100.00;100694.06;5027042;28;20364;-67
2021/09/11 04:32:32;;;;;;;47.35;37.17;;;;;;;16.63;100.00;100697.84;5010438;28;20088;-67
2021/09/11 04:35:01;;;;;;;48.97;36.03;;;;;;;16.68;100.00;100708.09;5021745;28;20131;-67
2021/09/11 04:37:28;;;;;;;43.22;36.80;;;;;;;16.68;100.00;100711.59;5030720;28;20689;-68
2021/09/11 04:39:55;;;;;;;40.20;35.60;;;;;;;16.63;100.00;100704.97;5050351;28;20128;-67
2021/09/11 04:42:23;;;;;;;39.88;35.25;;;;;;;16.66;100.00;100704.69;5009819;28;20052;-67
2021/09/11 04:44:50;;;;;;;40.67;35.60;;;;;;;16.69;100.00;100709.78;5018652;28;20049;-67
2021/09/11 04:47:17;;;;;;;42.45;35.05;;;;;;;16.79;100.00;100710.72;5002669;28;20555;-66
2021/09/11 04:49:44;;;;;;;37.47;30.38;;;;;;;16.89;100.00;100714.31;5037939;28;20052;-67
2021/09/11 04:52:11;;;;;;;40.40;33.00;;;;;;;16.94;100.00;100716.59;5027865;28;20049;-66
2021/09/11 04:54:38;;;;;;;35.88;31.63;;;;;;;16.96;100.00;100726.09;5022935;28;20049;-67
2021/09/11 04:57:06;;;;;;;33.38;29.42;;;;;;;17.07;100.00;100714.56;5047473;28;20069;-66
2021/09/11 04:59:33;;;;;;;34.13;30.52;;;;;;;17.19;100.00;100725.97;5023489;28;20057;-66
2021/09/11 05:02:00;;;;;;;32.47;28.98;;;;;;;17.37;100.00;100718.25;5041163;28;20049;-68
2021/09/11 05:04:27;;;;;;;31.05;27.77;;;;;;;17.49;100.00;100727.84;5042441;28;20106;-66
2021/09/11 05:06:55;;;;;;;31.92;28.63;;;;;;;17.50;100.00;100728.69;5049956;28;20128;-67
2021/09/11 05:09:23;;;;;;;31.52;27.38;;;;;;;17.59;100.00;100722.56;5019393;28;20148;-68
2021/09/11 05:11:50;;;;;;;29.33;26.23;;;;;;;17.68;100.00;100727.06;5026718;28;20128;-66
2021/09/11 05:14:18;;;;;;;28.58;25.70;;;;;;;17.78;100.00;100732.47;5017989;28;20061;-66
2021/09/11 05:16:45;;;;;;;27.85;24.92;;;;;;;17.92;100.00;100737.44;5039680;28;20045;-66
2021/09/11 05:19:12;;;;;;;27.15;23.98;;;;;;;18.00;100.00;100737.59;5036792;28;20136;-69
2021/09/11 05:21:39;;;;;;;28.83;24.02;;;;;;;18.11;100.00;100740.16;5045244;28;20132;-67
2021/09/11 05:24:06;;;;;;;29.45;23.08;;;;;;;18.26;100.00;100740.63;5050212;28;20136;-68
2021/09/11 05:26:34;;;;;;;24.27;21.80;;;;;;;18.45;100.00;100743.31;5040739;28;20164;-67
2021/09/11 05:29:01;;;;;;;24.42;21.70;;;;;;;18.63;100.00;100738.13;5052133;28;20053;-67
2021/09/11 05:31:28;;;;;;;24.75;20.55;;;;;;;18.74;100.00;100747.03;5047295;28;20052;-67
2021/09/11 05:33:55;;;;;;;24.67;22.05;;;;;;;18.85;100.00;100738.88;5011646;28;20087;-66
2021/09/11 05:36:22;;;;;;;24.17;21.00;;;;;;;18.99;100.00;100741.09;4996554;28;20522;-68
2021/09/11 05:38:50;;;;;;;22.27;18.92;;;;;;;19.09;100.00;100747.28;5046481;28;20448;-69
2021/09/11 05:41:17;;;;;;;21.48;19.27;;;;;;;19.28;100.00;100761.59;5046697;28;20053;-67
2021/09/11 05:43:44;;;;;;;25.15;19.10;;;;;;;19.56;100.00;100757.16;5018324;28;20128;-66
2021/09/11 05:46:11;;;;;;;22.58;18.70;;;;;;;19.92;100.00;100755.50;5054366;28;20052;-66
2021/09/11 05:48:39;;;;;;;21.75;18.58;;;;;;;20.16;100.00;100755.78;5044668;28;20482;-67
2021/09/11 05:51:06;;;;;;;20.85;18.33;;;;;;;20.42;100.00;100758.59;5019311;28;20052;-67
2021/09/11 05:53:33;;;;;;;20.17;17.73;;;;;;;20.46;100.00;100762.66;5027385;28;20140;-67
2021/09/11 05:56:00;;;;;;;18.10;16.00;;;;;;;20.49;100.00;100761.56;5045739;28;20447;-67
2021/09/11 05:58:29;;;;;;;19.40;17.30;;;;;;;20.61;100.00;100763.00;5046248;28;20128;-67
2021/09/11 06:00:56;;;;;;;19.75;17.23;;;;;;;20.56;100.00;100767.97;5040225;28;20472;-66
2021/09/11 06:03:24;;;;;;;18.85;16.20;;;;;;;20.31;100.00;100766.84;5045267;28;20057;-69
2021/09/11 06:05:52;;;;;;;19.88;17.77;;;;;;;20.08;100.00;100769.06;5046535;28;20057;-66
2021/09/11 06:08:19;;;;;;;19.65;16.27;;;;;;;19.87;100.00;100769.31;5019906;28;20049;-67
2021/09/11 06:10:46;;;;;;;27.60;18.08;;;;;;;19.64;100.00;100773.34;5032659;28;20056;-67
2021/09/11 06:13:13;;;;;;;24.42;18.83;;;;;;;19.42;100.00;100779.81;5045061;28;20139;-67
2021/09/11 06:15:40;;;;;;;27.10;16.90;;;;;;;19.29;100.00;100788.13;5048707;28;20057;-66
2021/09/11 06:18:08;;;;;;;24.90;17.65;;;;;;;19.33;100.00;100788.69;5028877;28;20626;-65
2021/09/11 06:20:35;;;;;;;22.08;18.92;;;;;;;19.26;100.00;100790.25;5000813;28;20148;-67
2021/09/11 06:23:02;;;;;;;19.42;17.30;;;;;;;19.31;100.00;100793.31;5036493;28;20103;-70
2021/09/11 06:25:29;;;;;;;25.23;19.40;;;;;;;19.38;100.00;100789.94;5037055;28;20535;-67
2021/09/11 06:27:57;;;;;;;20.70;18.48;;;;;;;19.42;100.00;100787.84;5042621;28;20139;-69
2021/09/11 06:30:25;;;;;;;23.00;18.73;;;;;;;19.45;100.00;100788.41;5040731;28;20060;-75
2021/09/11 06:32:52;;;;;;;20.10;18.10;;;;;;;19.41;100.00;100792.34;5023415;28;20467;-69
2021/09/11 06:35:19;;;;;;;21.33;18.13;;;;;;;19.43;100.00;100792.19;5039993;28;20460;-69
2021/09/11 06:37:46;;;;;;;22.10;18.17;;;;;;;19.51;100.00;100800.31;5043039;28;20052;-67
2021/09/11 06:40:14;;;;;;;20.83;18.30;;;;;;;19.62;100.00;100794.84;5021665;28;20048;-69
2021/09/11 06:42:41;;;;;;;20.23;16.75;;;;;;;19.77;100.00;100797.91;5044912;28;20045;-70
2021/09/11 06:45:08;;;;;;;18.05;16.15;;;;;;;20.00;100.00;100793.03;5043794;28;20077;-68
2021/09/11 06:47:35;;;;;;;25.85;17.48;;;;;;;20.21;100.00;100790.94;5044592;28;20053;-67
2021/09/11 06:50:03;;;;;;;20.02;16.40;;;;;;;20.33;100.00;100793.44;5043669;28;20056;-67
2021/09/11 06:52:30;;;;;;;21.70;16.10;;;;;;;20.48;100.00;100797.28;5043325;28;20075;-68
2021/09/11 06:54:58;;;;;;;19.80;16.48;;;;;;;20.84;100.00;100790.13;5020792;28;20132;-68
2021/09/11 06:57:26;;;;;;;22.10;16.05;;;;;;;21.06;100.00;100790.69;5048064;28;20131;-71
2021/09/11 06:59:53;;;;;;;20.45;16.60;;;;;;;21.26;100.00;100789.53;5024289;28;20506;-71
2021/09/11 07:02:20;;;;;;;19.02;15.98;;;;;;;21.54;100.00;100794.75;5010137;28;20519;-73
2021/09/11 07:04:47;;;;;;;18.38;15.38;;;;;;;22.08;100.00;100795.41;5027864;28;20081;-69
2021/09/11 07:07:15;;;;;;;22.52;15.68;;;;;;;22.44;95.54;100791.53;5026906;28;20136;-71
2021/09/11 07:09:42;;;;;;;23.08;15.90;;;;;;;23.06;91.95;100801.06;5044310;28;20132;-70
2021/09/11 07:12:09;;;;;;;15.23;13.32;;;;;;;24.25;82.76;100801.19;5049943;28;20053;-72
2021/09/11 07:14:36;;;;;;;14.82;13.30;;;;;;;25.18;78.13;100803.00;5040475;28;20049;-71
2021/09/11 07:17:03;;;;;;;16.02;11.52;;;;;;;25.41;75.86;100794.88;5045149;28;20127;-69
2021/09/11 07:19:31;;;;;;;14.63;11.93;;;;;;;25.08;76.15;100797.88;5027319;28;20080;-69
2021/09/11 07:21:58;;;;;;;15.60;12.43;;;;;;;24.38;79.50;100806.03;5049459;28;20132;-69
2021/09/11 07:24:25;;;;;;;15.73;12.68;;;;;;;23.63;83.26;100815.28;5042636;28;20140;-71
2021/09/11 07:26:52;;;;;;;17.52;14.27;;;;;;;22.90;87.75;100809.94;5028761;28;20080;-71
2021/09/11 07:29:19;;;;;;;18.15;14.15;;;;;;;22.44;90.53;100815.69;5043473;28;20052;-70
2021/09/11 07:31:46;;;;;;;16.65;13.63;;;;;;;22.45;91.36;100817.34;5051042;28;20049;-70
2021/09/11 07:34:14;;;;;;;15.50;13.10;;;;;;;22.53;91.59;100816.53;5044310;28;20056;-70
2021/09/11 07:36:42;;;;;;;16.23;14.10;;;;;;;22.47;92.43;100817.22;5016883;28;20045;-70
2021/09/11 07:39:09;;;;;;;18.70;14.05;;;;;;;22.74;90.14;100822.31;5011994;28;20132;-70
2021/09/11 07:41:36;;;;;;;15.20;13.05;;;;;;;22.70;90.35;100818.28;5050112;28;20547;-69
2021/09/11 07:44:04;;;;;;;24.27;15.02;;;;;;;22.58;90.80;100822.25;5045927;28;20122;-69
2021/09/11 07:46:31;;;;;;;19.08;13.52;;;;;;;22.31;92.78;100827.88;5049266;28;20049;-70
2021/09/11 07:48:58;;;;;;;21.85;13.55;;;;;;;22.11;92.22;100822.72;5047866;28;20076;-72
2021/09/11 07:51:25;;;;;;;24.58;14.70;;;;;;;21.73;95.62;100838.25;5043940;28;20045;-68
2021/09/11 07:53:52;;;;;;;17.70;14.05;;;;;;;21.49;98.15;100840.78;5047879;28;20059;-68
2021/09/11 07:56:20;;;;;;;17.85;14.35;;;;;;;21.13;100.00;100843.44;5048511;28;20131;-71
2021/09/11 07:58:47;;;;;;;18.48;14.90;;;;;;;21.07;100.00;100844.03;5022428;28;20133;-69
2021/09/11 08:01:15;;;;;;;19.25;14.32;;;;;;;21.04;100.00;100847.06;5039297;28;20040;-71
2021/09/11 08:03:42;;;;;;;19.40;15.27;;;;;;;21.06;100.00;100846.88;5050939;28;20128;-69
2021/09/11 08:06:10;;;;;;;17.02;14.07;;;;;;;21.09;100.00;100851.94;5034871;28;20329;-70
2021/09/11 08:08:38;;;;;;;16.45;14.15;;;;;;;21.04;100.00;100855.09;5053832;28;20954;-70
2021/09/11 08:11:08;;;;;;;16.40;14.75;;;;;;;21.08;100.00;100855.63;5029483;28;20122;-70
2021/09/11 08:13:36;;;;;;;17.30;14.48;;;;;;;21.16;100.00;100847.66;5038785;28;20151;-70
2021/09/11 08:16:03;;;;;;;16.77;14.45;;;;;;;21.42;100.00;100845.91;5022815;28;20059;-70
2021/09/11 08:18:30;;;;;;;18.13;14.63;;;;;;;22.22;100.00;100845.78;5047632;28;20136;-69
2021/09/11 08:20:58;;;;;;;15.55;13.32;;;;;;;23.96;90.03;100847.53;5037133;28;20144;-71
2021/09/11 08:23:25;;;;;;;15.65;14.05;;;;;;;24.29;84.91;100847.41;5044420;28;20057;-71
2021/09/11 08:25:52;;;;;;;17.10;12.43;;;;;;;24.73;81.46;100845.03;5022243;28;20057;-69
2021/09/11 08:28:20;;;;;;;14.05;12.57;;;;;;;25.33;78.29;100848.84;5039800;28;20063;-69
2021/09/11 08:30:47;;;;;;;13.95;11.73;;;;;;;25.14;78.29;100853.72;5042959;28;20175;-70
2021/09/11 08:33:15;;;;;;;16.92;13.02;;;;;;;24.92;78.66;100851.81;5043566;28;20136;-69
2021/09/11 08:35:43;;;;;;;15.75;12.85;;;;;;;24.33;81.68;100854.97;5042922;28;20045;-70
2021/09/11 08:38:10;;;;;;;16.23;12.50;;;;;;;23.64;85.23;100859.13;5046634;28;20073;-71
2021/09/11 08:40:38;;;;;;;19.70;13.43;;;;;;;23.22;88.81;100860.97;5048063;28;20044;-70
2021/09/11 08:43:05;;;;;;;13.68;12.13;;;;;;;23.19;89.06;100863.16;5047075;28;20507;-70
2021/09/11 08:45:33;;;;;;;14.15;12.48;;;;;;;23.24;88.98;100864.34;5018938;28;20049;-71
2021/09/11 08:48:02;;;;;;;16.30;14.52;;;;;;;23.05;88.83;100856.59;5052535;28;20088;-73
2021/09/11 08:50:30;;;;;;;13.88;11.85;;;;;;;23.09;87.19;100866.00;5046146;28;20041;-70
2021/09/11 08:52:57;;;;;;;14.80;13.30;;;;;;;22.93;86.98;100863.31;5047113;28;20045;-70
2021/09/11 08:55:25;;;;;;;14.38;12.88;;;;;;;22.81;89.20;100867.28;5031819;28;20515;-70
2021/09/11 08:57:59;;;;;;;15.73;13.02;;;;;;;22.98;89.55;100863.66;5034146;28;20443;-69
2021/09/11 09:00:43;;;;;;;13.50;11.88;;;;;;;23.38;86.79;100859.31;5044900;28;20053;-72
2021/09/11 09:03:34;;;;;;;13.87;10.90;;;;;;;24.12;81.94;100865.44;5029808;28;20040;-69
2021/09/11 09:06:15;;;;;;;12.88;11.25;;;;;;;24.94;78.06;100857.84;5040224;28;20052;-70
2021/09/11 09:08:44;;;;;;;11.35;10.02;;;;;;;25.70;74.15;100854.22;5040146;28;20236;-70
2021/09/11 09:11:25;;;;;;;17.90;10.88;;;;;;;26.21;72.44;100867.06;5046105;28;20123;-70
2021/09/11 09:13:55;;;;;;;12.93;10.95;;;;;;;25.88;71.61;100867.41;5054782;28;20577;-69
2021/09/11 09:16:23;;;;;;;14.15;11.43;;;;;;;25.98;71.52;100864.44;5020212;28;20136;-70
2021/09/11 09:18:51;;;;;;;11.98;9.50;;;;;;;26.04;71.97;100866.41;5043649;28;20511;-73
2021/09/11 09:21:28;;;;;;;11.40;9.40;;;;;;;25.96;69.85;100866.47;5039219;28;20049;-71
2021/09/11 09:24:01;;;;;;;10.23;7.88;;;;;;;26.13;69.26;100873.38;5044181;28;20606;-70
2021/09/11 09:26:29;;;;;;;9.60;7.90;;;;;;;26.09;68.54;100873.94;5020616;28;20052;-70
2021/09/11 09:29:02;;;;;;;10.60;7.93;;;;;;;26.01;67.83;100872.16;5026976;28;20152;-70
2021/09/11 09:31:29;;;;;;;12.50;8.98;;;;;;;25.71;70.27;100876.63;5044881;28;20132;-71
2021/09/11 09:33:57;;;;;;;12.10;9.13;;;;;;;25.61;69.83;100871.50;5008416;28;20059;-69
2021/09/11 09:36:50;;;;;;;12.07;9.00;;;;;;;25.85;69.10;100875.88;5043955;28;20064;-71
2021/09/11 09:39:17;;;;;;;8.93;8.02;;;;;;;25.91;68.59;100871.59;5024453;28;20558;-70
2021/09/11 09:41:50;;;;;;;10.35;7.63;;;;;;;25.65;69.57;100871.97;5047221;28;20045;-70
2021/09/11 09:44:20;;;;;;;10.90;8.63;;;;;;;25.58;69.65;100873.72;5050573;28;20135;-71
2021/09/11 09:46:49;;;;;;;8.90;7.32;;;;;;;25.75;68.06;100873.38;5056170;28;20159;-72
2021/09/11 09:49:19;;;;;;;6.72;5.35;;;;;;;25.75;66.41;100877.94;5028253;28;20056;-71
2021/09/11 09:51:48;;;;;;;6.82;5.85;;;;;;;25.77;66.48;100869.72;5053547;28;20051;-73
2021/09/11 09:54:16;;;;;;;9.38;5.90;;;;;;;25.73;67.54;100870.06;5045782;28;20092;-72
2021/09/11 09:56:44;;;;;;;7.13;5.63;;;;;;;25.92;67.00;100873.25;5045035;28;20063;-72
2021/09/11 09:59:12;;;;;;;7.55;5.13;;;;;;;25.88;66.91;100870.09;5027084;28;20057;-71
2021/09/11 10:01:39;;;;;;;7.13;5.70;;;;;;;25.63;66.93;100868.66;5046113;28;20068;-71
2021/09/11 10:04:14;;;;;;;8.13;5.65;;;;;;;25.33;68.99;100870.41;5042323;28;20497;-71
2021/09/11 10:06:43;;;;;;;10.27;6.72;;;;;;;25.50;67.98;100869.25;5039479;28;20124;-72
2021/09/11 10:09:14;;;;;;;8.25;6.80;;;;;;;25.13;70.25;100873.59;5024046;28;20052;-71
2021/09/11 10:11:49;;;;;;;9.15;6.43;;;;;;;25.30;69.14;100860.81;5008629;28;20594;-71
2021/09/11 10:14:21;;;;;;;8.32;5.82;;;;;;;25.57;68.06;100866.66;5024213;28;20099;-71
2021/09/11 10:17:00;;;;;;;7.07;6.28;;;;;;;25.32;68.92;100866.88;5049525;28;20140;-72
2021/09/11 10:19:30;;;;;;;8.85;5.80;;;;;;;25.59;68.03;100856.56;5055673;28;20681;-71
2021/09/11 10:22:16;;;;;;;8.90;5.70;;;;;;;25.88;67.26;100864.69;5048592;28;20067;-72
2021/09/11 10:24:47;;;;;;;11.02;6.82;;;;;;;25.80;66.77;100853.16;5037242;28;20581;-70
2021/09/11 10:27:25;;;;;;;7.10;6.32;;;;;;;26.10;66.00;100862.94;5035304;28;20052;-71
2021/09/11 10:29:54;;;;;;;8.32;6.68;;;;;;;26.18;66.09;100859.31;5038555;28;20125;-72
2021/09/11 10:32:25;;;;;;;9.02;6.70;;;;;;;25.90;66.45;100856.44;5040601;28;20049;-71
2021/09/11 10:35:07;;;;;;;7.10;6.30;;;;;;;26.09;65.45;100861.28;5037482;28;20045;-74
2021/09/11 10:37:41;;;;;;;9.05;5.80;;;;;;;25.24;68.09;100850.78;5036176;28;20048;-72
2021/09/11 10:40:22;;;;;;;10.48;6.82;;;;;;;25.34;69.02;100854.06;5049586;28;20478;-72
2021/09/11 10:45:45;;;;;;;8.35;7.30;;;;;;;24.78;71.54;100863.34;5036322;28;20053;-69
2021/09/11 10:48:47;;;;;;;8.52;7.13;;;;;;;23.95;75.20;100862.78;5046844;28;20164;-68
2021/09/11 10:51:33;;;;;;;12.30;8.80;;;;;;;23.20;79.74;100856.81;5054547;28;20059;-71
2021/09/11 10:54:23;;;;;;;13.13;9.25;;;;;;;23.17;80.68;100860.66;5049299;28;20144;-70
2021/09/11 10:56:52;;;;;;;11.07;9.95;;;;;;;23.30;80.44;100860.16;5014474;28;20091;-71
2021/09/11 10:59:19;;;;;;;12.20;9.57;;;;;;;23.88;77.85;100855.59;5040827;28;20048;-70
2021/09/11 11:01:52;;;;;;;10.25;9.15;;;;;;;23.70;78.25;100853.13;5049687;28;20124;-69
2021/09/11 11:04:34;;;;;;;12.95;9.32;;;;;;;24.15;75.98;100852.50;5053967;28;20076;-71
2021/09/11 11:07:10;;;;;;;10.45;8.93;;;;;;;24.08;76.19;100846.13;5046665;28;20057;-70
2021/09/11 11:09:42;;;;;;;9.88;8.45;;;;;;;23.96;75.54;100844.84;5050617;28;20094;-69
2021/09/11 11:12:10;;;;;;;9.13;8.23;;;;;;;23.99;76.22;100837.25;5044917;28;20107;-68
2021/09/11 11:14:45;;;;;;;9.23;8.32;;;;;;;24.28;76.25;100830.44;5051969;28;20049;-68
2021/09/11 11:17:17;;;;;;;8.70;7.80;;;;;;;24.44;74.78;100833.06;5047032;28;20487;-69
2021/09/11 11:19:49;;;;;;;7.53;6.40;;;;;;;24.32;73.32;100830.94;5033142;28;20454;-70
2021/09/11 11:22:24;;;;;;;11.95;7.40;;;;;;;24.58;72.25;100828.78;5052723;28;20124;-69